Tuesday, May 24, 2016
17:43 UTC
  |  Log In   |  Register Free
Airport Search:

Hillsboro Municipal Airport
(KINJ)

Hillsboro Municipal Airport Diagram
No Airport Diagram Available

FAA data valid effective Mar 31 2016 - May 26 2016 (unless otherwise noted).

 
 
 
 
 
 
 
 
 
 
 
 
 
 
Current Aviation Weather for KINJ

Weather Summary


The most recent METAR observation for INJ was updated at: 12:55 UTC
METAR for KINJ is not available. Closest METAR is for KCPT
KINJ  (most recent observation was updatred at 24:17 UTC)
241735Z AUTO 16011G15KT 10SM SCT025 BKN036 OVC044 28/22 A2998 RMK AO2 T02790221

KCPT  (23.6 nm SE)   (most recent observation was updated at 24:17 UTC)
241735Z AUTO 17009KT 10SM OVC036 27/23 A2998 RMK AO2

KJWY  (24.4 nm SW)   (most recent observation was updated at 24:17 UTC)
241735Z AUTO 16009G15KT 10SM BKN026 BKN031 BKN040 26/22 A2999 RMK AO2 T02580223

TAF for KINJ is not available.
KACT  (29.1 nm NE)   (most recent observation was updatred at 24:17 UTC)
241738Z 2418/2518 16014KT P6SM BKN035 FM250600 17013KT P6SM BKN012 OVC020


KGKY  (34.8 nm SW)   (most recent observation was updatred at 24:17 UTC)
241738Z 2418/2518 17015KT P6SM BKN025 FM241900 16014KT P6SM BKN035 FM250000 15013KT P6SM VCTS BKN040CB FM250200 16011KT P6SM FEW020 BKN035 FM250800 18013KT P6SM OVC010


GlobalAir.com is loading additional information.
 Current Weather at INJ
78.0 F° (25.7 C°)

South winds at 11.5 mph
Pressure:
29.98 in
Humidity:
79%
Wind:
South at 11.5 mph
Dew Point:
71.2 F° (21.8 C°)
Visibility:
10.00 mi
INJ NOAA Radar




Find All Airport Services Find A Hotel Find A Rental Car Find A Golf Course Find A Restaurant $100 Hamburger



Airport Weather Forecast for KINJ

Translated METAR for KINJ (1735 UTC)
METAR:
KINJ 241735Z AUTO 16011G15KT 10SM SCT025 BKN036 OVC044 28/22 A2998 RMK AO2 T02790221
Conditions at:
KINJ (Hillsboro Muni, TX) observed 1735 UTC 24 May 2016
Temperature:
28°C (82.4°F)
Dewpoint:
22°C (71.6°F) [RH = 69.9]
Pressure:
29.98 inches Hg (1015.2 mb)
Winds:
from the SSE (160 degrees) at 12.7 mph (11 knots: 5.7 m/s)
gusting to 17.3 mph (15 knots: 7.7 m/s)
Visibility:
10 mile(s)
Ceiling:
3,600 feet AGL
Clouds:
Scattered Clouds at 2,500 feet AGL
Broken Cloud Cover at 3,600 feet AGL
Overcast Skies at 4,400 feet AGL
Remarks:
site is un-manned
site is automated and HAS a precipitation sensor

Translated TAF for KACT (Waco Rgnl, TX) (1738 UTC)
TAF text:
KACT 241738Z 2418/2518 16014KT P6SM BKN035
Forecast period:
Tuesday May 24 2016 18:00 UTC - Wednesday May 25 2016 18:00 UTC
Forecast type:
FROM: standard forecast or significant change
Winds:
from the SSE (160 degrees) at 16.1 mph (14 knots: 7.2 m/s)
Visibility:
6 or more mile(s) (9.7+ km)
Ceiling:
3,500 feet AGL
Clouds:
Broken Cloud Cover at 3,500 feet AGL
Weather:
no significant weather observed at this time
TAF text:
FM250600 17013KT P6SM BKN012 OVC020
Forecast period:
Wednesday May 25 2016 06:00 UTC - Wednesday May 25 2016 18:00 UTC
Forecast type:
FROM: standard forecast or significant change
Winds:
from the S (170 degrees) at 15 mph (13 knots: 6.7 m/s)
Visibility:
6 or more mile(s) (9.7+ km)
Ceiling:
1,200 feet AGL
Clouds:
Broken Cloud Cover at 1,200 feet AGL
Overcast Skies at 2,000 feet AGL
Weather:
no significant weather observed at this time
FBO's on the Field
FBO Company Facility Photos Services Transportation Aviation Fuel Prices: Prices include tax
Catering Weather Repair Courtesy Rental Type 100LL JetA JetA+ MOGAS 8087
 
Hillsboro Municipal Airport

This FBO has not yet been rated
FS:Avfuel
Last Updated: May-20
Login to update fuel prices
SS:
Contact Hillsboro Municipal AirportMore FBO Information
 
Add another FBO Facility Photos Catering Weather Repair Courtesy Rental Type 100LL JetA JetA+ MOGAS 8087
Services Transportation Aviation Fuel Prices: Prices include tax


model-print
model-print
model-print
model-print